sensor_id;sensor_type;location;lat;lon;timestamp;pressure;altitude;pressure_sealevel;temperature;humidity
69171;BME280;56279;47.902;12.308;2024-03-23T00:54:01;94886.38;;;9.33;83.90
69171;BME280;56279;47.902;12.308;2024-03-23T00:56:04;94884.53;;;9.33;83.54
69171;BME280;56279;47.902;12.308;2024-03-23T00:58:06;94886.63;;;9.31;83.63
69171;BME280;56279;47.902;12.308;2024-03-23T01:00:07;94882.16;;;9.32;83.56
69171;BME280;56279;47.902;12.308;2024-03-23T01:02:12;94875.34;;;9.31;83.71
69171;BME280;56279;47.902;12.308;2024-03-23T01:04:13;94866.66;;;9.30;83.73
69171;BME280;56279;47.902;12.308;2024-03-23T01:06:15;94873.75;;;9.30;83.32
69171;BME280;56279;47.902;12.308;2024-03-23T01:08:17;94870.34;;;9.29;83.59
69171;BME280;56279;47.902;12.308;2024-03-23T01:10:18;94859.03;;;9.29;83.42
69171;BME280;56279;47.902;12.308;2024-03-23T01:12:19;94862.72;;;9.28;83.42
69171;BME280;56279;47.902;12.308;2024-03-23T01:14:21;94855.88;;;9.27;83.62
69171;BME280;56279;47.902;12.308;2024-03-23T01:16:22;94856.66;;;9.27;83.53
69171;BME280;56279;47.902;12.308;2024-03-23T01:18:24;94854.59;;;9.24;83.42
69171;BME280;56279;47.902;12.308;2024-03-23T01:20:27;94846.69;;;9.24;83.41
69171;BME280;56279;47.902;12.308;2024-03-23T01:22:28;94849.06;;;9.26;83.43
69171;BME280;56279;47.902;12.308;2024-03-23T01:24:31;94845.63;;;9.25;83.24
69171;BME280;56279;47.902;12.308;2024-03-23T01:26:33;94845.94;;;9.24;83.27
69171;BME280;56279;47.902;12.308;2024-03-23T01:28:35;94845.13;;;9.23;83.57
69171;BME280;56279;47.902;12.308;2024-03-23T01:30:36;94838.28;;;9.22;83.50
69171;BME280;56279;47.902;12.308;2024-03-23T01:32:37;94835.16;;;9.20;83.40
69171;BME280;56279;47.902;12.308;2024-03-23T01:34:39;94833.03;;;9.22;83.16
69171;BME280;56279;47.902;12.308;2024-03-23T01:36:42;94827.50;;;9.24;83.17
69171;BME280;56279;47.902;12.308;2024-03-23T01:38:43;94829.84;;;9.25;83.16
69171;BME280;56279;47.902;12.308;2024-03-23T01:40:44;94831.13;;;9.28;82.70
69171;BME280;56279;47.902;12.308;2024-03-23T01:42:55;94826.16;;;9.26;82.90
69171;BME280;56279;47.902;12.308;2024-03-23T01:44:57;94819.03;;;9.27;82.67
69171;BME280;56279;47.902;12.308;2024-03-23T01:46:58;94816.69;;;9.25;82.62
69171;BME280;56279;47.902;12.308;2024-03-23T01:48:59;94815.88;;;9.25;82.49
69171;BME280;56279;47.902;12.308;2024-03-23T01:51:01;94820.38;;;9.24;82.53
69171;BME280;56279;47.902;12.308;2024-03-23T01:53:02;94808.28;;;9.23;82.42
69171;BME280;56279;47.902;12.308;2024-03-23T01:55:04;94812.75;;;9.23;82.45
69171;BME280;56279;47.902;12.308;2024-03-23T01:57:05;94809.84;;;9.24;81.97
69171;BME280;56279;47.902;12.308;2024-03-23T01:59:06;94800.88;;;9.25;81.74
69171;BME280;56279;47.902;12.308;2024-03-23T02:01:07;94801.94;;;9.24;81.80
69171;BME280;56279;47.902;12.308;2024-03-23T02:03:25;94800.38;;;9.23;81.46
69171;BME280;56279;47.902;12.308;2024-03-23T02:05:27;94801.44;;;9.22;81.22
69171;BME280;56279;47.902;12.308;2024-03-23T02:07:28;94797.75;;;9.23;81.55
69171;BME280;56279;47.902;12.308;2024-03-23T02:09:30;94798.53;;;9.24;81.31
69171;BME280;56279;47.902;12.308;2024-03-23T02:11:33;94795.63;;;9.25;81.38
69171;BME280;56279;47.902;12.308;2024-03-23T02:13:34;94792.97;;;9.25;80.83
69171;BME280;56279;47.902;12.308;2024-03-23T02:15:35;94790.63;;;9.24;81.21
69171;BME280;56279;47.902;12.308;2024-03-23T02:17:36;94793.53;;;9.22;81.10
69171;BME280;56279;47.902;12.308;2024-03-23T02:19:38;94789.34;;;9.21;81.36
69171;BME280;56279;47.902;12.308;2024-03-23T02:21:39;94789.13;;;9.18;81.75
69171;BME280;56279;47.902;12.308;2024-03-23T02:23:40;94787.31;;;9.13;81.71
69171;BME280;56279;47.902;12.308;2024-03-23T02:25:42;94783.97;;;9.08;81.87
69171;BME280;56279;47.902;12.308;2024-03-23T02:27:45;94788.72;;;9.05;82.37
69171;BME280;56279;47.902;12.308;2024-03-23T02:29:46;94785.88;;;9.02;82.09
69171;BME280;56279;47.902;12.308;2024-03-23T02:31:47;94786.72;;;8.97;82.56
69171;BME280;56279;47.902;12.308;2024-03-23T02:33:50;94783.59;;;8.95;82.51
69171;BME280;56279;47.902;12.308;2024-03-23T02:35:55;94775.44;;;8.92;82.67
69171;BME280;56279;47.902;12.308;2024-03-23T02:37:57;94772.66;;;8.83;83.26
69171;BME280;56279;47.902;12.308;2024-03-23T02:40:00;94779.59;;;8.74;83.48
69171;BME280;56279;47.902;12.308;2024-03-23T02:42:01;94771.53;;;8.66;83.74
69171;BME280;56279;47.902;12.308;2024-03-23T02:44:02;94768.44;;;8.59;83.95
69171;BME280;56279;47.902;12.308;2024-03-23T02:46:04;94761.63;;;8.53;84.47
69171;BME280;56279;47.902;12.308;2024-03-23T02:48:06;94762.19;;;8.50;84.43
69171;BME280;56279;47.902;12.308;2024-03-23T02:50:07;94761.69;;;8.48;84.53
69171;BME280;56279;47.902;12.308;2024-03-23T02:52:10;94768.00;;;8.47;84.29
69171;BME280;56279;47.902;12.308;2024-03-23T02:54:11;94757.72;;;8.50;84.54
69171;BME280;56279;47.902;12.308;2024-03-23T02:56:13;94764.50;;;8.56;83.85
69171;BME280;56279;47.902;12.308;2024-03-23T02:58:16;94762.88;;;8.60;83.27
69171;BME280;56279;47.902;12.308;2024-03-23T03:00:18;94762.59;;;8.62;82.92
69171;BME280;56279;47.902;12.308;2024-03-23T03:02:20;94761.03;;;8.61;83.19
69171;BME280;56279;47.902;12.308;2024-03-23T03:04:22;94765.28;;;8.57;83.39
69171;BME280;56279;47.902;12.308;2024-03-23T03:06:24;94761.59;;;8.58;82.84
69171;BME280;56279;47.902;12.308;2024-03-23T03:08:26;94756.03;;;8.59;83.10
69171;BME280;56279;47.902;12.308;2024-03-23T03:10:27;94753.91;;;8.61;82.88
69171;BME280;56279;47.902;12.308;2024-03-23T03:12:28;94754.75;;;8.57;83.03
69171;BME280;56279;47.902;12.308;2024-03-23T03:14:29;94747.19;;;8.50;82.75
69171;BME280;56279;47.902;12.308;2024-03-23T03:16:31;94749.09;;;8.45;83.48
69171;BME280;56279;47.902;12.308;2024-03-23T03:18:32;94745.94;;;8.43;83.68
69171;BME280;56279;47.902;12.308;2024-03-23T03:20:33;94745.94;;;8.43;83.13
69171;BME280;56279;47.902;12.308;2024-03-23T03:22:35;94735.66;;;8.46;82.82
69171;BME280;56279;47.902;12.308;2024-03-23T03:24:37;94742.72;;;8.51;82.84
69171;BME280;56279;47.902;12.308;2024-03-23T03:26:38;94739.81;;;8.52;82.43
69171;BME280;56279;47.902;12.308;2024-03-23T03:28:39;94737.47;;;8.51;82.80
69171;BME280;56279;47.902;12.308;2024-03-23T03:30:41;94741.72;;;8.47;82.94
69171;BME280;56279;47.902;12.308;2024-03-23T03:32:43;94733.88;;;8.42;82.94
69171;BME280;56279;47.902;12.308;2024-03-23T03:34:44;94732.34;;;8.35;83.03
69171;BME280;56279;47.902;12.308;2024-03-23T03:36:45;94727.16;;;8.30;83.54
69171;BME280;56279;47.902;12.308;2024-03-23T03:38:47;94730.03;;;8.24;83.53
69171;BME280;56279;47.902;12.308;2024-03-23T03:40:49;94724.56;;;8.20;83.48
69171;BME280;56279;47.902;12.308;2024-03-23T03:42:50;94712.75;;;8.18;83.86
69171;BME280;56279;47.902;12.308;2024-03-23T03:44:51;94709.13;;;8.14;83.60
69171;BME280;56279;47.902;12.308;2024-03-23T03:46:55;94713.09;;;8.11;83.78
69171;BME280;56279;47.902;12.308;2024-03-23T03:48:56;94711.25;;;8.12;83.69
69171;BME280;56279;47.902;12.308;2024-03-23T03:50:57;94701.50;;;8.12;83.45
69171;BME280;56279;47.902;12.308;2024-03-23T03:52:59;94701.25;;;8.14;82.95
69171;BME280;56279;47.902;12.308;2024-03-23T03:55:03;94696.78;;;8.14;82.99
69171;BME280;56279;47.902;12.308;2024-03-23T03:57:12;94700.44;;;8.13;83.02
69171;BME280;56279;47.902;12.308;2024-03-23T03:59:14;94694.94;;;8.10;82.84
69171;BME280;56279;47.902;12.308;2024-03-23T04:01:16;94697.06;;;8.08;83.41
69171;BME280;56279;47.902;12.308;2024-03-23T04:03:17;94695.50;;;8.07;83.11
69171;BME280;56279;47.902;12.308;2024-03-23T04:05:18;94683.97;;;8.03;82.96
69171;BME280;56279;47.902;12.308;2024-03-23T04:07:21;94680.59;;;8.02;83.42
69171;BME280;56279;47.902;12.308;2024-03-23T04:09:23;94683.47;;;8.01;83.27
69171;BME280;56279;47.902;12.308;2024-03-23T04:11:25;94687.13;;;8.05;83.27
69171;BME280;56279;47.902;12.308;2024-03-23T04:13:26;94683.22;;;8.02;83.07
69171;BME280;56279;47.902;12.308;2024-03-23T04:15:27;94686.16;;;7.96;83.44
69171;BME280;56279;47.902;12.308;2024-03-23T04:17:31;94671.75;;;7.88;83.76
69171;BME280;56279;47.902;12.308;2024-03-23T04:19:35;94679.16;;;7.86;83.91
69171;BME280;56279;47.902;12.308;2024-03-23T04:21:37;94668.88;;;7.85;83.58
69171;BME280;56279;47.902;12.308;2024-03-23T04:23:39;94666.84;;;7.82;83.60
69171;BME280;56279;47.902;12.308;2024-03-23T04:25:40;94670.25;;;7.77;83.52
69171;BME280;56279;47.902;12.308;2024-03-23T04:27:41;94658.22;;;7.71;83.54
69171;BME280;56279;47.902;12.308;2024-03-23T04:29:46;94661.41;;;7.68;83.73
69171;BME280;56279;47.902;12.308;2024-03-23T04:31:48;94648.56;;;7.66;84.25
69171;BME280;56279;47.902;12.308;2024-03-23T04:33:50;94650.41;;;7.66;84.14
69171;BME280;56279;47.902;12.308;2024-03-23T04:35:51;94655.59;;;7.71;83.59
69171;BME280;56279;47.902;12.308;2024-03-23T04:37:53;94651.88;;;7.77;83.45
69171;BME280;56279;47.902;12.308;2024-03-23T04:39:54;94653.41;;;7.83;83.35
69171;BME280;56279;47.902;12.308;2024-03-23T04:41:56;94652.88;;;7.86;82.80
69171;BME280;56279;47.902;12.308;2024-03-23T04:43:57;94646.28;;;7.89;83.03
69171;BME280;56279;47.902;12.308;2024-03-23T04:45:58;94653.09;;;7.90;82.63
69171;BME280;56279;47.902;12.308;2024-03-23T04:48:00;94648.63;;;7.90;83.01
69171;BME280;56279;47.902;12.308;2024-03-23T04:50:02;94643.66;;;7.89;82.91
69171;BME280;56279;47.902;12.308;2024-03-23T04:52:04;94643.38;;;7.90;82.59
69171;BME280;56279;47.902;12.308;2024-03-23T04:54:05;94637.28;;;7.95;82.50
69171;BME280;56279;47.902;12.308;2024-03-23T04:56:06;94632.22;;;8.03;81.98
69171;BME280;56279;47.902;12.308;2024-03-23T04:58:08;94633.16;;;8.12;81.68
69171;BME280;56279;47.902;12.308;2024-03-23T05:00:10;94631.28;;;8.18;81.07
69171;BME280;56279;47.902;12.308;2024-03-23T05:02:18;94626.22;;;8.26;80.53
69171;BME280;56279;47.902;12.308;2024-03-23T05:04:20;94619.56;;;8.34;80.32
69171;BME280;56279;47.902;12.308;2024-03-23T05:06:21;94621.38;;;8.39;80.33
69171;BME280;56279;47.902;12.308;2024-03-23T05:08:24;94621.09;;;8.40;79.96
69171;BME280;56279;47.902;12.308;2024-03-23T05:10:25;94622.38;;;8.43;79.79
69171;BME280;56279;47.902;12.308;2024-03-23T05:12:26;94620.47;;;8.48;79.67
69171;BME280;56279;47.902;12.308;2024-03-23T05:14:27;94623.06;;;8.53;79.01
69171;BME280;56279;47.902;12.308;2024-03-23T05:16:30;94612.75;;;8.57;78.63
69171;BME280;56279;47.902;12.308;2024-03-23T05:18:31;94610.13;;;8.57;78.24
69171;BME280;56279;47.902;12.308;2024-03-23T05:20:32;94607.56;;;8.52;78.97
69171;BME280;56279;47.902;12.308;2024-03-23T05:22:33;94597.66;;;8.44;79.09
69171;BME280;56279;47.902;12.308;2024-03-23T05:24:35;94601.69;;;8.36;79.67
69171;BME280;56279;47.902;12.308;2024-03-23T05:26:36;94591.22;;;8.31;80.17
69171;BME280;56279;47.902;12.308;2024-03-23T05:28:37;94594.91;;;8.30;80.25
69171;BME280;56279;47.902;12.308;2024-03-23T05:30:38;94586.53;;;8.28;79.88
69171;BME280;56279;47.902;12.308;2024-03-23T05:32:41;94593.09;;;8.25;80.51
69171;BME280;56279;47.902;12.308;2024-03-23T05:34:45;94586.03;;;8.26;80.46
69171;BME280;56279;47.902;12.308;2024-03-23T05:36:46;94579.97;;;8.25;80.56
69171;BME280;56279;47.902;12.308;2024-03-23T05:38:47;94581.31;;;8.23;80.27
69171;BME280;56279;47.902;12.308;2024-03-23T05:40:59;94570.50;;;8.24;80.49
69171;BME280;56279;47.902;12.308;2024-03-23T05:43:00;94565.72;;;8.31;80.11
69171;BME280;56279;47.902;12.308;2024-03-23T05:45:02;94567.75;;;8.40;79.87
69171;BME280;56279;47.902;12.308;2024-03-23T05:47:03;94556.88;;;8.46;79.75
69171;BME280;56279;47.902;12.308;2024-03-23T05:49:04;94561.28;;;8.51;79.10
69171;BME280;56279;47.902;12.308;2024-03-23T05:51:06;94553.53;;;8.59;78.98
69171;BME280;56279;47.902;12.308;2024-03-23T05:53:07;94549.50;;;8.67;78.35
69171;BME280;56279;47.902;12.308;2024-03-23T05:55:09;94556.69;;;8.80;78.35
69171;BME280;56279;47.902;12.308;2024-03-23T05:57:11;94549.44;;;8.90;77.57
69171;BME280;56279;47.902;12.308;2024-03-23T05:59:13;94547.25;;;8.97;77.35
69171;BME280;56279;47.902;12.308;2024-03-23T06:01:14;94546.38;;;9.02;77.12
69171;BME280;56279;47.902;12.308;2024-03-23T06:03:16;94533.72;;;9.04;77.43
69171;BME280;56279;47.902;12.308;2024-03-23T06:05:18;94533.66;;;9.09;77.19
69171;BME280;56279;47.902;12.308;2024-03-23T06:07:19;94532.50;;;9.15;76.78
69171;BME280;56279;47.902;12.308;2024-03-23T06:09:20;94519.41;;;9.29;75.49
69171;BME280;56279;47.902;12.308;2024-03-23T06:11:22;94523.94;;;9.55;74.19
69171;BME280;56279;47.902;12.308;2024-03-23T06:13:23;94526.63;;;9.83;72.98
69171;BME280;56279;47.902;12.308;2024-03-23T06:15:31;94520.78;;;9.99;71.82
69171;BME280;56279;47.902;12.308;2024-03-23T06:17:32;94518.69;;;10.15;71.84
69171;BME280;56279;47.902;12.308;2024-03-23T06:19:34;94520.16;;;10.21;71.36
69171;BME280;56279;47.902;12.308;2024-03-23T06:21:36;94507.44;;;10.23;70.84
69171;BME280;56279;47.902;12.308;2024-03-23T06:23:37;94507.56;;;10.31;70.54
69171;BME280;56279;47.902;12.308;2024-03-23T06:25:38;94502.03;;;10.55;70.05
69171;BME280;56279;47.902;12.308;2024-03-23T06:27:40;94498.13;;;10.88;68.43
69171;BME280;56279;47.902;12.308;2024-03-23T06:29:41;94500.50;;;11.12;67.21
69171;BME280;56279;47.902;12.308;2024-03-23T06:31:43;94498.38;;;11.23;66.86
69171;BME280;56279;47.902;12.308;2024-03-23T06:33:44;94495.59;;;11.19;66.56
69171;BME280;56279;47.902;12.308;2024-03-23T06:35:52;94490.41;;;11.14;67.08
69171;BME280;56279;47.902;12.308;2024-03-23T06:37:53;94491.31;;;11.09;67.04
69171;BME280;56279;47.902;12.308;2024-03-23T06:39:54;94488.56;;;11.15;66.88
69171;BME280;56279;47.902;12.308;2024-03-23T06:41:56;94499.50;;;11.22;66.52
69171;BME280;56279;47.902;12.308;2024-03-23T06:43:57;94493.53;;;11.38;66.23
69171;BME280;56279;47.902;12.308;2024-03-23T06:45:59;94484.16;;;11.54;65.76
69171;BME280;56279;47.902;12.308;2024-03-23T06:48:00;94491.06;;;11.64;65.46
69171;BME280;56279;47.902;12.308;2024-03-23T06:50:02;94483.41;;;11.62;65.13
69171;BME280;56279;47.902;12.308;2024-03-23T06:52:05;94487.59;;;11.55;65.69
69171;BME280;56279;47.902;12.308;2024-03-23T06:54:06;94481.50;;;11.54;65.83
69171;BME280;56279;47.902;12.308;2024-03-23T06:56:07;94487.41;;;11.51;66.54
69171;BME280;56279;47.902;12.308;2024-03-23T06:58:09;94475.41;;;11.45;66.17
69171;BME280;56279;47.902;12.308;2024-03-23T07:00:12;94473.84;;;11.44;66.02
69171;BME280;56279;47.902;12.308;2024-03-23T07:02:14;94468.06;;;11.42;66.33
69171;BME280;56279;47.902;12.308;2024-03-23T07:04:16;94465.44;;;11.42;66.12
69171;BME280;56279;47.902;12.308;2024-03-23T07:06:18;94467.47;;;11.45;65.56
69171;BME280;56279;47.902;12.308;2024-03-23T07:08:19;94462.06;;;11.50;65.12
69171;BME280;56279;47.902;12.308;2024-03-23T07:10:23;94463.50;;;11.56;64.73
69171;BME280;56279;47.902;12.308;2024-03-23T07:12:24;94452.78;;;11.61;64.51
69171;BME280;56279;47.902;12.308;2024-03-23T07:14:25;94455.59;;;11.65;64.21
69171;BME280;56279;47.902;12.308;2024-03-23T07:16:27;94452.84;;;11.70;63.86
69171;BME280;56279;47.902;12.308;2024-03-23T07:18:28;94456.63;;;11.77;63.62
69171;BME280;56279;47.902;12.308;2024-03-23T07:20:29;94447.78;;;11.82;64.10
69171;BME280;56279;47.902;12.308;2024-03-23T07:22:32;94446.53;;;11.88;64.16
69171;BME280;56279;47.902;12.308;2024-03-23T07:24:34;94435.03;;;11.93;64.08
69171;BME280;56279;47.902;12.308;2024-03-23T07:26:35;94429.75;;;11.93;64.16
69171;BME280;56279;47.902;12.308;2024-03-23T07:28:37;94426.19;;;11.97;64.04
69171;BME280;56279;47.902;12.308;2024-03-23T07:30:39;94418.75;;;11.99;63.72
69171;BME280;56279;47.902;12.308;2024-03-23T07:32:40;94422.03;;;12.05;63.81
69171;BME280;56279;47.902;12.308;2024-03-23T07:34:41;94408.19;;;12.08;63.88
69171;BME280;56279;47.902;12.308;2024-03-23T07:36:45;94396.22;;;12.10;63.77
69171;BME280;56279;47.902;12.308;2024-03-23T07:38:46;94394.03;;;12.12;64.02
69171;BME280;56279;47.902;12.308;2024-03-23T07:40:47;94391.56;;;12.16;63.57
69171;BME280;56279;47.902;12.308;2024-03-23T07:42:55;94375.06;;;12.19;63.09
69171;BME280;56279;47.902;12.308;2024-03-23T07:44:57;94378.03;;;12.26;62.79
69171;BME280;56279;47.902;12.308;2024-03-23T07:47:03;94386.28;;;12.33;62.31
69171;BME280;56279;47.902;12.308;2024-03-23T07:49:04;94387.53;;;12.44;61.40
69171;BME280;56279;47.902;12.308;2024-03-23T07:51:25;94391.44;;;12.55;60.88
69171;BME280;56279;47.902;12.308;2024-03-23T07:53:27;94381.00;;;12.67;60.27
69171;BME280;56279;47.902;12.308;2024-03-23T07:55:28;94386.16;;;12.81;59.88
69171;BME280;56279;47.902;12.308;2024-03-23T07:57:30;94380.22;;;12.92;59.63
69171;BME280;56279;47.902;12.308;2024-03-23T07:59:32;94375.69;;;13.01;59.11
69171;BME280;56279;47.902;12.308;2024-03-23T08:01:34;94378.94;;;13.07;59.40
69171;BME280;56279;47.902;12.308;2024-03-23T08:03:40;94379.13;;;13.10;58.81
69171;BME280;56279;47.902;12.308;2024-03-23T08:05:42;94381.44;;;13.21;58.43
69171;BME280;56279;47.902;12.308;2024-03-23T08:07:44;94377.69;;;13.30;57.79
69171;BME280;56279;47.902;12.308;2024-03-23T08:09:45;94378.88;;;13.41;57.80
69171;BME280;56279;47.902;12.308;2024-03-23T08:11:46;94386.91;;;13.62;56.79
69171;BME280;56279;47.902;12.308;2024-03-23T08:13:48;94386.16;;;13.91;55.69
69171;BME280;56279;47.902;12.308;2024-03-23T08:15:49;94382.22;;;14.26;55.30
69171;BME280;56279;47.902;12.308;2024-03-23T08:17:50;94386.06;;;14.58;54.15
69171;BME280;56279;47.902;12.308;2024-03-23T08:19:51;94399.34;;;14.78;52.96
69171;BME280;56279;47.902;12.308;2024-03-23T08:21:53;94407.50;;;14.94;52.58
69171;BME280;56279;47.902;12.308;2024-03-23T08:23:55;94410.53;;;15.04;52.97
69171;BME280;56279;47.902;12.308;2024-03-23T08:25:58;94418.94;;;15.06;53.26
69171;BME280;56279;47.902;12.308;2024-03-23T08:28:02;94426.13;;;15.06;52.92
69171;BME280;56279;47.902;12.308;2024-03-23T08:30:05;94434.44;;;15.04;53.30
69171;BME280;56279;47.902;12.308;2024-03-23T08:32:08;94453.69;;;15.01;54.30
69171;BME280;56279;47.902;12.308;2024-03-23T08:34:10;94457.53;;;14.92;54.61
69171;BME280;56279;47.902;12.308;2024-03-23T08:36:11;94468.84;;;14.80;55.30
69171;BME280;56279;47.902;12.308;2024-03-23T08:38:13;94478.16;;;14.66;55.73
69171;BME280;56279;47.902;12.308;2024-03-23T08:40:14;94494.16;;;14.57;56.43
69171;BME280;56279;47.902;12.308;2024-03-23T08:42:17;94501.69;;;14.55;55.13
69171;BME280;56279;47.902;12.308;2024-03-23T08:44:18;94521.03;;;14.56;54.83
69171;BME280;56279;47.902;12.308;2024-03-23T08:46:22;94516.13;;;14.66;54.36
69171;BME280;56279;47.902;12.308;2024-03-23T08:48:23;94521.81;;;14.85;54.00
69171;BME280;56279;47.902;12.308;2024-03-23T08:50:24;94533.06;;;15.03;53.31
69171;BME280;56279;47.902;12.308;2024-03-23T08:52:25;94522.47;;;15.23;52.40
69171;BME280;56279;47.902;12.308;2024-03-23T08:54:29;94547.22;;;15.36;52.08
69171;BME280;56279;47.902;12.308;2024-03-23T08:56:32;94550.56;;;15.33;52.86
69171;BME280;56279;47.902;12.308;2024-03-23T08:58:34;94547.81;;;15.21;53.90
69171;BME280;56279;47.902;12.308;2024-03-23T09:00:37;94571.41;;;15.02;55.58
69171;BME280;56279;47.902;12.308;2024-03-23T09:02:38;94576.41;;;14.74;56.77
69171;BME280;56279;47.902;12.308;2024-03-23T09:04:40;94591.22;;;14.46;57.67
69171;BME280;56279;47.902;12.308;2024-03-23T09:06:45;94592.06;;;14.21;58.87
69171;BME280;56279;47.902;12.308;2024-03-23T09:08:47;94605.69;;;13.94;59.99
69171;BME280;56279;47.902;12.308;2024-03-23T09:10:48;94591.38;;;13.69;60.64
69171;BME280;56279;47.902;12.308;2024-03-23T09:12:50;94645.94;;;13.44;60.66
69171;BME280;56279;47.902;12.308;2024-03-23T09:14:51;94626.28;;;13.28;61.47
69171;BME280;56279;47.902;12.308;2024-03-23T09:16:54;94631.09;;;13.18;61.90
69171;BME280;56279;47.902;12.308;2024-03-23T09:18:55;94637.94;;;13.10;61.97
69171;BME280;56279;47.902;12.308;2024-03-23T09:20:57;94653.47;;;13.03;62.27
69171;BME280;56279;47.902;12.308;2024-03-23T09:22:58;94659.22;;;12.96;62.52
69171;BME280;56279;47.902;12.308;2024-03-23T09:25:00;94634.28;;;12.89;63.03
69171;BME280;56279;47.902;12.308;2024-03-23T09:27:02;94654.34;;;12.81;63.20
69171;BME280;56279;47.902;12.308;2024-03-23T09:29:04;94659.63;;;12.73;63.73
69171;BME280;56279;47.902;12.308;2024-03-23T09:31:07;94660.19;;;12.61;63.91
69171;BME280;56279;47.902;12.308;2024-03-23T09:33:16;94663.59;;;12.53;64.44
69171;BME280;56279;47.902;12.308;2024-03-23T09:35:18;94662.75;;;12.44;64.76
69171;BME280;56279;47.902;12.308;2024-03-23T09:37:19;94672.34;;;12.31;65.10
69171;BME280;56279;47.902;12.308;2024-03-23T09:39:21;94675.25;;;12.21;65.55
69171;BME280;56279;47.902;12.308;2024-03-23T09:41:22;94665.09;;;12.15;66.07
69171;BME280;56279;47.902;12.308;2024-03-23T09:43:23;94670.81;;;12.08;66.36
69171;BME280;56279;47.902;12.308;2024-03-23T09:45:28;94688.50;;;11.99;67.69
69171;BME280;56279;47.902;12.308;2024-03-23T09:47:32;94685.16;;;11.71;69.47
69171;BME280;56279;47.902;12.308;2024-03-23T09:49:34;94678.25;;;11.35;72.04
69171;BME280;56279;47.902;12.308;2024-03-23T09:51:37;94678.50;;;10.97;74.64
69171;BME280;56279;47.902;12.308;2024-03-23T09:53:38;94690.63;;;10.71;76.18
69171;BME280;56279;47.902;12.308;2024-03-23T09:55:42;94693.47;;;10.48;77.67
69171;BME280;56279;47.902;12.308;2024-03-23T09:57:44;94706.56;;;10.20;79.03
69171;BME280;56279;47.902;12.308;2024-03-23T09:59:45;94704.72;;;10.02;80.33
69171;BME280;56279;47.902;12.308;2024-03-23T10:01:46;94714.44;;;9.88;80.96
69171;BME280;56279;47.902;12.308;2024-03-23T10:03:48;94715.38;;;9.79;81.33
69171;BME280;56279;47.902;12.308;2024-03-23T10:06:00;94722.91;;;9.66;81.82
69171;BME280;56279;47.902;12.308;2024-03-23T10:10:15;94745.25;;;9.50;83.11
69171;BME280;56279;47.902;12.308;2024-03-23T10:12:18;94747.41;;;9.48;83.27
69171;BME280;56279;47.902;12.308;2024-03-23T10:14:29;94752.66;;;9.48;83.29
69171;BME280;56279;47.902;12.308;2024-03-23T10:16:31;94761.72;;;9.42;83.87
69171;BME280;56279;47.902;12.308;2024-03-23T10:18:37;94754.38;;;9.39;84.12
69171;BME280;56279;47.902;12.308;2024-03-23T10:20:38;94758.16;;;9.33;85.09
69171;BME280;56279;47.902;12.308;2024-03-23T10:22:39;94757.75;;;9.21;85.46
69171;BME280;56279;47.902;12.308;2024-03-23T10:24:42;94764.31;;;9.24;85.45
69171;BME280;56279;47.902;12.308;2024-03-23T10:26:43;94760.66;;;9.20;86.42
69171;BME280;56279;47.902;12.308;2024-03-23T10:28:58;94757.53;;;9.18;86.56
69171;BME280;56279;47.902;12.308;2024-03-23T10:31:11;94782.06;;;9.13;87.10
69171;BME280;56279;47.902;12.308;2024-03-23T10:33:13;94769.47;;;9.10;87.35
69171;BME280;56279;47.902;12.308;2024-03-23T10:35:16;94774.28;;;9.03;87.55
69171;BME280;56279;47.902;12.308;2024-03-23T10:37:19;94782.25;;;8.98;88.05
69171;BME280;56279;47.902;12.308;2024-03-23T10:39:21;94790.19;;;8.93;88.21
69171;BME280;56279;47.902;12.308;2024-03-23T10:41:27;94793.66;;;8.88;88.60
69171;BME280;56279;47.902;12.308;2024-03-23T10:43:30;94801.09;;;8.81;88.68
69171;BME280;56279;47.902;12.308;2024-03-23T10:45:32;94809.81;;;8.77;88.17
69171;BME280;56279;47.902;12.308;2024-03-23T10:47:36;94812.03;;;8.65;87.79
69171;BME280;56279;47.902;12.308;2024-03-23T10:49:38;94820.00;;;8.55;88.19
69171;BME280;56279;47.902;12.308;2024-03-23T10:51:39;94828.75;;;8.45;88.57
69171;BME280;56279;47.902;12.308;2024-03-23T10:53:40;94841.47;;;8.33;89.06
69171;BME280;56279;47.902;12.308;2024-03-23T10:55:42;94854.66;;;8.28;88.96
69171;BME280;56279;47.902;12.308;2024-03-23T10:57:50;94843.84;;;8.24;89.04
69171;BME280;56279;47.902;12.308;2024-03-23T10:59:53;94851.25;;;8.17;89.45
69171;BME280;56279;47.902;12.308;2024-03-23T11:01:56;94843.16;;;8.14;89.53
69171;BME280;56279;47.902;12.308;2024-03-23T11:03:57;94845.53;;;8.10;89.71
69171;BME280;56279;47.902;12.308;2024-03-23T11:06:00;94838.97;;;8.08;89.41
69171;BME280;56279;47.902;12.308;2024-03-23T11:08:02;94849.22;;;8.09;89.31
69171;BME280;56279;47.902;12.308;2024-03-23T11:10:29;94858.19;;;8.03;87.91
69171;BME280;56279;47.902;12.308;2024-03-23T11:12:31;94861.88;;;8.02;88.14
69171;BME280;56279;47.902;12.308;2024-03-23T11:14:34;94871.09;;;7.95;88.38
69171;BME280;56279;47.902;12.308;2024-03-23T11:16:35;94890.59;;;7.89;87.97
69171;BME280;56279;47.902;12.308;2024-03-23T11:18:39;94890.63;;;7.84;87.94
69171;BME280;56279;47.902;12.308;2024-03-23T11:20:40;94900.84;;;7.80;88.61
69171;BME280;56279;47.902;12.308;2024-03-23T11:22:45;94900.63;;;7.77;88.39
69171;BME280;56279;47.902;12.308;2024-03-23T11:24:55;94908.25;;;7.73;88.90
69171;BME280;56279;47.902;12.308;2024-03-23T11:26:57;94895.13;;;7.68;88.94
69171;BME280;56279;47.902;12.308;2024-03-23T11:29:19;94905.13;;;7.66;88.95
69171;BME280;56279;47.902;12.308;2024-03-23T11:31:20;94913.53;;;7.63;89.23
69171;BME280;56279;47.902;12.308;2024-03-23T11:33:23;94909.63;;;7.60;89.54
69171;BME280;56279;47.902;12.308;2024-03-23T11:35:34;94917.22;;;7.62;89.46
69171;BME280;56279;47.902;12.308;2024-03-23T11:37:36;94919.03;;;7.61;89.44
69171;BME280;56279;47.902;12.308;2024-03-23T11:39:41;94911.97;;;7.57;89.00
69171;BME280;56279;47.902;12.308;2024-03-23T11:41:53;94909.88;;;7.54;89.07